Aérodrome :







RETROUVEZ-NOUS SUR...

 
LOGIN :

S'inscrire | Disclaimer

   EN    FR    IT 

 









Légende :    VFR   VFR Marginal   IFR   IFR Intensif   IFR Très Intensif
Visi : 
Plafond : 
>= 8 km
>= 3000ft
5 à 8 km
1000 à 3000 ft
1500m à 5 km
500 à 1000 ft
800 à 1500m
200 à 500 ft
< 800m
< 200 ft
Symboles :   Orages  Brouillard  Fortes neiges  Fortes précipitations  Vent > 20 kt






- Altitude de l'aérodrome : 23 ft
- Code IATA : STT


TIST - King

DERNIER METAR :
  • 251853Z 12010KT 10SM CLR 31/23 A2996 RMK AO2 SLP144 T03060228

METARs EXPIRÉS :
  • 251753Z 13012KT 10SM CLR 31/23 A2997 RMK AO2 SLP148 T03060228 10311 20289 58012
  • 251653Z 13013KT 10SM FEW024 FEW035 31/23 A2999 RMK AO2 SLP156 T03060233 $

TAF TIST
Valide du 25 à 18h jusqu'au 26 à 18h UTC


251740Z 2518/2618 13012KT P6SM VCSH FEW030 SCT045
FM260000 10007KT P6SM FEW030
FM261300 13014KT P6SM VCSH SCT030
FIR TJZS / Amérique du Nord



MET'MAP, la Météo Aéronautique d'un coup d'oeil ! - Copyright ORBIFLY Décembre 2007 - Disclaimer

ORBIFLY MET'MAP TEAM :

Programmation & Développement : Alexandra Zaïnal
Sur une idée originale de : Baudouin d'Aumeries
Assistance à la programmation : Marc-Olivier Méhu
Soutien technique & logistique : Manuel Goepfert

Contact : metmap@orbifly.com




SOURCES & CREDITS :

   NOAA